Time;durP1;ratioP1;P1;durP2;ratioP2;P2;SDS_P1;SDS_P2;PMS_P1;PMS_P2;Temp;Humidity;BMP_temperature;BMP_pressure;BME280_temperature;BME280_humidity;BME280_pressure;Samples;Min_cycle;Max_cycle;Signal;HPM_P1;HPM_P2
2022/09/06 00:00:51;;;;;;;6.05;4.85;;;;;;;20.84;73.52;95834.31;4971691;28;20197;-81
2022/09/06 00:03:18;;;;;;;4.97;4.57;;;;;;;20.82;73.63;95832.94;4972267;28;20211;-81
2022/09/06 00:05:46;;;;;;;5.95;4.70;;;;;;;20.87;73.19;95833.06;4971433;28;20224;-81
2022/09/06 00:08:13;;;;;;;6.15;4.68;;;;;;;20.89;73.50;95833.63;4971388;28;20773;-83
2022/09/06 00:10:41;;;;;;;7.15;5.03;;;;;;;20.75;74.50;95829.69;4971880;28;20200;-82
2022/09/06 00:13:08;;;;;;;6.15;4.93;;;;;;;20.76;73.99;95837.31;4971761;28;20571;-83
2022/09/06 00:15:36;;;;;;;6.75;4.78;;;;;;;20.81;73.27;95837.38;4971653;28;20228;-80
2022/09/06 00:18:05;;;;;;;5.03;4.63;;;;;;;20.81;73.37;95837.38;4971367;28;20274;-81
2022/09/06 00:20:33;;;;;;;5.63;4.93;;;;;;;20.81;73.84;95834.78;4972034;28;20200;-83
2022/09/06 00:23:03;;;;;;;5.40;4.90;;;;;;;20.67;74.15;95833.47;4971499;28;20707;-83
2022/09/06 00:25:30;;;;;;;5.32;4.93;;;;;;;20.72;73.63;95833.56;4966250;28;20223;-83
2022/09/06 00:27:57;;;;;;;6.50;4.75;;;;;;;20.71;74.36;95831.19;4971227;28;20235;-81
2022/09/06 00:30:24;;;;;;;4.88;4.47;;;;;;;20.72;73.79;95832.78;4971372;28;20668;-83
2022/09/06 00:32:51;;;;;;;6.13;4.75;;;;;;;20.64;74.30;95826.88;4972280;28;20295;-80
2022/09/06 00:35:18;;;;;;;5.32;4.82;;;;;;;20.57;74.79;95825.44;4971443;28;20265;-84
2022/09/06 00:37:45;;;;;;;4.95;4.55;;;;;;;20.56;74.14;95824.66;4972479;28;20224;-80
2022/09/06 00:40:13;;;;;;;5.07;4.30;;;;;;;20.50;75.23;95824.78;4971534;28;20196;-82
2022/09/06 00:42:39;;;;;;;4.70;4.30;;;;;;;20.52;75.17;95826.13;4972190;28;20201;-83
2022/09/06 00:45:08;;;;;;;5.00;4.47;;;;;;;20.46;75.62;95823.66;4971595;28;20282;-81
2022/09/06 00:47:36;;;;;;;5.13;4.70;;;;;;;20.18;77.11;95824.38;4972144;28;20223;-81
2022/09/06 00:50:04;;;;;;;5.38;4.40;;;;;;;20.06;77.14;95834.03;4972055;28;20196;-81
2022/09/06 00:52:32;;;;;;;5.85;4.97;;;;;;;19.94;77.20;95821.78;4972265;28;20217;-82
2022/09/06 00:54:59;;;;;;;5.55;4.70;;;;;;;19.98;77.87;95828.16;4971463;28;20651;-83
2022/09/06 00:57:30;;;;;;;5.50;5.00;;;;;;;20.10;76.99;95843.81;4972332;28;20832;-80
2022/09/06 00:59:58;;;;;;;4.57;3.97;;;;;;;20.15;76.39;95838.72;4971981;28;20193;-81
2022/09/06 01:02:25;;;;;;;4.68;4.32;;;;;;;20.25;76.28;95844.13;4971811;28;20204;-82
2022/09/06 01:04:52;;;;;;;4.78;4.38;;;;;;;20.29;75.90;95841.84;4971217;28;20223;-82
2022/09/06 01:07:29;;;;;;;5.15;4.70;;;;;;;20.37;75.99;95845.97;4971512;28;20676;-83
2022/09/06 01:10:15;;;;;;;5.03;4.63;;;;;;;20.23;76.28;95842.75;4971101;28;20208;-83
2022/09/06 01:12:50;;;;;;;5.05;4.55;;;;;;;20.28;76.12;95845.50;4967368;28;20192;-84
2022/09/06 01:15:24;;;;;;;5.30;4.43;;;;;;;20.22;76.66;95852.44;4971093;28;20236;-81
2022/09/06 01:18:01;;;;;;;5.13;4.65;;;;;;;20.10;76.92;95846.44;4971607;28;20212;-80
2022/09/06 01:20:48;;;;;;;4.50;4.10;;;;;;;19.87;78.29;95838.59;4970849;28;20219;-82
2022/09/06 01:23:48;;;;;;;4.50;4.10;;;;;;;19.98;77.68;95849.06;4971271;28;20192;-82
2022/09/06 01:26:35;;;;;;;5.15;4.50;;;;;;;20.13;76.48;95853.03;4970750;28;20331;-83
2022/09/06 01:29:09;;;;;;;4.65;4.25;;;;;;;20.18;75.93;95843.47;4970298;28;20239;-83
2022/09/06 01:31:44;;;;;;;5.05;4.40;;;;;;;19.99;77.03;95840.19;4968337;28;20196;-83
2022/09/06 01:34:21;;;;;;;5.00;4.60;;;;;;;19.99;76.88;95847.25;4974696;28;20222;-81
2022/09/06 01:36:52;;;;;;;4.97;4.57;;;;;;;20.06;76.80;95853.13;4974230;28;20251;-81
2022/09/06 01:39:23;;;;;;;5.55;4.55;;;;;;;20.19;75.93;95849.50;4974452;28;20228;-83
2022/09/06 01:41:51;;;;;;;4.38;3.92;;;;;;;20.26;75.51;95847.53;4974877;28;20212;-82
2022/09/06 01:44:19;;;;;;;4.63;4.22;;;;;;;20.19;75.72;95852.91;4974264;28;20192;-82
2022/09/06 01:46:55;;;;;;;4.05;3.75;;;;;;;20.21;75.48;95857.88;4973952;28;20245;-81
2022/09/06 01:49:33;;;;;;;4.70;4.20;;;;;;;20.23;75.35;95854.03;4963178;28;20707;-82
2022/09/06 01:52:12;;;;;;;4.47;4.05;;;;;;;20.20;75.58;95859.72;4956265;28;20212;-83
2022/09/06 01:54:55;;;;;;;4.30;3.80;;;;;;;20.28;74.96;95848.91;4968600;28;20216;-82
2022/09/06 01:57:39;;;;;;;5.05;4.22;;;;;;;20.25;75.08;95851.97;4974294;28;20207;-83
2022/09/06 02:00:09;;;;;;;4.32;4.03;;;;;;;20.23;74.70;95855.84;4973402;28;20196;-80
2022/09/06 02:02:46;;;;;;;4.38;4.05;;;;;;;20.10;75.47;95853.47;4974683;28;20230;-80
2022/09/06 02:05:20;;;;;;;5.30;4.38;;;;;;;19.99;75.50;95844.63;4973820;28;20278;-83
2022/09/06 02:07:50;;;;;;;4.68;4.35;;;;;;;20.00;75.54;95847.03;4974536;28;20574;-81
2022/09/06 02:10:22;;;;;;;4.47;4.07;;;;;;;20.06;75.33;95847.91;4973302;28;20250;-83
2022/09/06 02:12:53;;;;;;;5.30;4.50;;;;;;;20.15;75.10;95853.59;4974580;28;20196;-81
2022/09/06 02:15:24;;;;;;;5.97;4.30;;;;;;;20.13;75.09;95853.81;4974454;28;20236;-81
2022/09/06 02:17:57;;;;;;;4.97;4.57;;;;;;;20.13;74.94;95843.38;4974500;28;20219;-83
2022/09/06 02:20:26;;;;;;;4.40;3.95;;;;;;;20.05;75.23;95842.91;4973169;28;20207;-83
2022/09/06 02:22:56;;;;;;;4.50;4.07;;;;;;;20.01;75.48;95848.59;4973784;28;20660;-81
2022/09/06 02:25:27;;;;;;;4.10;3.70;;;;;;;20.01;75.13;95843.34;4973109;28;20620;-83
2022/09/06 02:27:54;;;;;;;5.03;4.20;;;;;;;20.06;75.00;95844.50;4974496;28;20219;-81
2022/09/06 02:30:23;;;;;;;4.40;4.00;;;;;;;20.13;74.79;95848.59;4973289;28;20199;-81
2022/09/06 02:32:55;;;;;;;4.30;3.90;;;;;;;20.15;74.46;95840.53;4974264;28;20201;-81
2022/09/06 02:35:21;;;;;;;4.60;4.15;;;;;;;20.13;74.58;95850.41;4972958;28;20223;-81
2022/09/06 02:37:48;;;;;;;5.40;4.25;;;;;;;20.14;74.45;95838.94;4973854;28;20216;-83
2022/09/06 02:40:15;;;;;;;4.07;3.78;;;;;;;20.14;74.08;95850.19;4972663;28;20235;-83
2022/09/06 02:42:41;;;;;;;4.45;4.10;;;;;;;20.11;73.76;95840.19;4973363;28;20201;-81
2022/09/06 02:45:09;;;;;;;4.15;3.75;;;;;;;20.18;73.86;95847.91;4972540;28;20290;-83
2022/09/06 02:47:37;;;;;;;4.15;3.70;;;;;;;20.19;73.41;95844.28;4973901;28;20216;-80
2022/09/06 02:50:03;;;;;;;4.10;3.80;;;;;;;20.21;73.06;95845.59;4972745;28;20223;-80
2022/09/06 02:52:30;;;;;;;3.95;3.60;;;;;;;20.14;73.77;95846.78;4973775;28;20204;-81
2022/09/06 02:54:56;;;;;;;4.05;3.58;;;;;;;20.16;73.69;95844.72;4972372;28;20231;-82
2022/09/06 02:57:23;;;;;;;4.15;3.78;;;;;;;20.10;73.65;95843.81;4973509;28;20207;-82
2022/09/06 02:59:50;;;;;;;4.22;3.85;;;;;;;20.02;74.12;95847.56;4973494;28;20680;-82
2022/09/06 03:02:17;;;;;;;4.18;3.88;;;;;;;19.95;74.03;95844.28;4972536;28;20208;-82
2022/09/06 03:04:45;;;;;;;3.97;3.67;;;;;;;19.97;73.88;95847.47;4972809;28;20196;-81
2022/09/06 03:07:11;;;;;;;4.43;4.10;;;;;;;19.93;74.31;95846.34;4972876;28;20228;-83
2022/09/06 03:09:38;;;;;;;4.20;3.90;;;;;;;19.99;73.93;95848.03;4973019;28;20200;-81
2022/09/06 03:12:04;;;;;;;8.25;3.97;;;;;;;20.04;73.58;95847.34;4972411;28;20196;-83
2022/09/06 03:14:31;;;;;;;3.83;3.53;;;;;;;20.05;73.29;95848.94;4972476;28;20216;-82
2022/09/06 03:16:57;;;;;;;3.95;3.65;;;;;;;20.10;73.25;95848.25;4972944;28;20284;-81
2022/09/06 03:19:24;;;;;;;4.53;3.50;;;;;;;20.04;73.59;95844.72;4972862;28;20220;-84
2022/09/06 03:21:51;;;;;;;4.00;3.70;;;;;;;20.01;73.56;95839.97;4972843;28;20204;-83
2022/09/06 03:24:18;;;;;;;3.90;3.60;;;;;;;20.00;73.16;95841.00;4972578;28;20687;-83
2022/09/06 03:26:44;;;;;;;5.10;4.07;;;;;;;19.97;73.00;95833.63;4971979;28;20220;-82
2022/09/06 03:29:10;;;;;;;4.28;3.95;;;;;;;19.89;73.29;95834.75;4972440;28;20228;-81
2022/09/06 03:31:37;;;;;;;4.20;3.90;;;;;;;19.83;73.45;95832.25;4971760;28;20657;-81
2022/09/06 03:34:03;;;;;;;4.82;4.43;;;;;;;19.72;74.17;95836.47;4972361;28;20643;-81
2022/09/06 03:36:30;;;;;;;4.40;4.00;;;;;;;19.72;74.11;95826.00;4971866;28;20230;-83
2022/09/06 03:38:57;;;;;;;3.80;3.50;;;;;;;19.80;73.71;95830.91;4972520;28;20271;-81
2022/09/06 03:41:24;;;;;;;4.20;3.88;;;;;;;19.72;73.75;95826.00;4971989;28;20199;-83
2022/09/06 03:43:50;;;;;;;4.93;3.63;;;;;;;19.79;73.46;95829.31;4973222;28;20208;-83
2022/09/06 03:46:17;;;;;;;5.03;4.25;;;;;;;19.73;73.50;95826.81;4972001;28;20607;-82
2022/09/06 03:48:43;;;;;;;4.47;4.18;;;;;;;19.67;73.63;95821.44;4972941;28;20219;-82
2022/09/06 03:51:10;;;;;;;4.22;3.90;;;;;;;19.51;74.26;95824.75;4965627;28;20230;-82
2022/09/06 03:53:36;;;;;;;4.38;3.85;;;;;;;19.53;74.38;95824.53;4966187;28;20189;-83
2022/09/06 03:56:05;;;;;;;4.50;4.10;;;;;;;19.54;74.28;95820.88;4971749;28;20230;-81
2022/09/06 03:58:32;;;;;;;4.65;4.20;;;;;;;19.50;74.31;95827.59;4971700;28;20217;-82
2022/09/06 04:01:01;;;;;;;4.35;4.00;;;;;;;19.53;74.13;95814.88;4971095;28;20211;-82
2022/09/06 04:03:27;;;;;;;4.25;3.95;;;;;;;19.52;74.10;95821.13;4971618;28;20196;-83
2022/09/06 04:05:54;;;;;;;4.50;4.10;;;;;;;19.54;74.19;95821.69;4971697;28;20227;-82
2022/09/06 04:08:20;;;;;;;5.85;3.97;;;;;;;19.52;74.23;95825.53;4971250;28;20240;-81
2022/09/06 04:10:49;;;;;;;4.60;4.20;;;;;;;19.51;74.46;95840.41;4971179;28;20204;-81
2022/09/06 04:13:17;;;;;;;5.10;4.30;;;;;;;19.50;74.32;95841.44;4971567;28;20687;-81
2022/09/06 04:15:45;;;;;;;4.47;4.18;;;;;;;19.43;74.90;95838.13;4971276;28;20236;-82
2022/09/06 04:18:11;;;;;;;4.28;3.97;;;;;;;19.45;74.30;95843.88;4971546;28;20351;-83
2022/09/06 04:20:38;;;;;;;5.60;3.90;;;;;;;19.49;74.06;95845.03;4971126;28;20207;-81
2022/09/06 04:23:05;;;;;;;4.13;3.80;;;;;;;19.54;73.48;95839.16;4971771;28;20192;-82
2022/09/06 04:25:31;;;;;;;4.97;4.03;;;;;;;19.58;73.27;95835.09;4971838;28;20623;-80
2022/09/06 04:27:57;;;;;;;4.28;3.88;;;;;;;19.62;73.28;95831.00;4971313;28;20255;-79
2022/09/06 04:30:25;;;;;;;4.82;3.72;;;;;;;19.61;73.07;95825.00;4971251;28;20208;-81
2022/09/06 04:32:52;;;;;;;4.60;4.22;;;;;;;19.65;72.99;95827.94;4970384;28;20203;-81
2022/09/06 04:35:18;;;;;;;4.63;4.10;;;;;;;19.56;73.37;95827.47;4970169;28;20246;-80
2022/09/06 04:37:45;;;;;;;5.50;3.97;;;;;;;19.44;73.80;95824.03;4969062;28;20220;-83
2022/09/06 04:40:12;;;;;;;4.80;3.92;;;;;;;19.40;74.10;95833.34;4969929;28;20203;-79
2022/09/06 04:42:38;;;;;;;6.68;3.75;;;;;;;19.45;74.03;95827.44;4961632;28;20291;-83
2022/09/06 04:45:06;;;;;;;4.03;3.63;;;;;;;19.57;76.63;95836.13;4960136;28;20248;-86
2022/09/06 04:47:34;;;;;;;6.72;4.10;;;;;;;19.86;75.84;95840.41;4973665;28;20224;-85
2022/09/06 04:50:00;;;;;;;4.43;4.00;;;;;;;20.05;72.60;95846.31;4974143;28;20596;-83
2022/09/06 04:52:27;;;;;;;4.40;3.50;;;;;;;20.07;71.32;95848.69;4971474;28;20691;-84
2022/09/06 04:54:53;;;;;;;6.65;3.97;;;;;;;19.94;73.40;95854.97;4974676;28;20242;-82
2022/09/06 04:57:20;;;;;;;7.13;4.85;;;;;;;19.94;73.06;95847.94;4976007;28;20208;-82
2022/09/06 04:59:46;;;;;;;5.30;3.85;;;;;;;20.04;73.06;95849.94;4975116;28;20211;-84
2022/09/06 05:02:12;;;;;;;4.80;3.85;;;;;;;20.04;72.04;95849.16;4975072;28;20207;-85
2022/09/06 05:04:40;;;;;;;4.40;4.00;;;;;;;20.12;72.35;95851.44;4974794;28;20204;-84
2022/09/06 05:07:08;;;;;;;4.20;3.90;;;;;;;20.19;71.33;95847.69;4978621;28;20204;-84
2022/09/06 05:09:35;;;;;;;5.15;3.95;;;;;;;20.24;71.33;95841.75;4978790;28;20212;-83
2022/09/06 05:12:02;;;;;;;16.45;14.73;;;;;;;20.25;70.57;95853.78;4978413;28;20205;-85
2022/09/06 05:14:29;;;;;;;8.43;7.55;;;;;;;20.27;70.83;95859.59;4978065;28;20240;-83
2022/09/06 05:16:56;;;;;;;6.40;5.80;;;;;;;20.27;70.69;95863.00;4977949;28;20208;-85
2022/09/06 05:19:24;;;;;;;9.32;6.90;;;;;;;20.25;70.33;95866.88;4977253;28;20246;-82
2022/09/06 05:21:52;;;;;;;6.65;5.95;;;;;;;20.12;71.01;95875.75;4977863;28;20516;-85
2022/09/06 05:24:18;;;;;;;33.17;29.70;;;;;;;20.15;70.12;95884.97;4977971;28;20204;-85
2022/09/06 05:26:45;;;;;;;29.02;26.02;;;;;;;20.23;69.81;95882.00;4977203;28;20669;-83
2022/09/06 05:29:11;;;;;;;8.18;7.45;;;;;;;20.28;69.37;95884.72;4976311;28;20243;-82
2022/09/06 05:31:38;;;;;;;6.75;4.18;;;;;;;20.27;69.43;95886.53;4977090;28;20211;-85
2022/09/06 05:34:04;;;;;;;5.70;3.67;;;;;;;20.28;69.18;95889.94;4977656;28;20638;-85
2022/09/06 05:36:31;;;;;;;3.92;3.58;;;;;;;20.26;69.77;95894.63;4977494;28;20240;-84
2022/09/06 05:38:59;;;;;;;3.92;3.50;;;;;;;20.23;69.68;95905.53;4977658;28;20267;-84
2022/09/06 05:41:26;;;;;;;4.00;3.40;;;;;;;20.22;69.39;95898.69;4976664;28;20200;-83
2022/09/06 05:43:52;;;;;;;4.43;3.65;;;;;;;20.14;69.83;95905.09;4977041;28;20239;-82
2022/09/06 05:46:19;;;;;;;4.07;3.40;;;;;;;20.15;69.93;95905.88;4975648;28;20231;-82
2022/09/06 05:48:51;;;;;;;4.60;3.75;;;;;;;20.18;69.94;95905.44;4975656;28;20239;-82
2022/09/06 05:51:18;;;;;;;3.90;3.60;;;;;;;20.08;70.41;95934.75;4974198;28;20262;-81
2022/09/06 05:53:45;;;;;;;4.15;3.80;;;;;;;20.00;70.75;95919.41;4975094;28;20203;-80
2022/09/06 05:56:14;;;;;;;3.40;3.20;;;;;;;19.82;71.71;95922.91;4974241;28;20243;-80
2022/09/06 05:58:41;;;;;;;3.72;3.42;;;;;;;19.75;72.20;95926.66;4974434;28;20331;-82
2022/09/06 06:01:14;;;;;;;4.13;3.60;;;;;;;19.80;72.25;95932.00;4974084;28;20259;-82
2022/09/06 06:03:40;;;;;;;3.38;3.08;;;;;;;19.82;72.08;95941.19;4974542;28;20235;-80
2022/09/06 06:06:07;;;;;;;4.18;3.22;;;;;;;19.87;72.27;95943.13;4974296;28;20960;-81
2022/09/06 06:08:34;;;;;;;4.32;3.25;;;;;;;19.99;71.74;95944.75;4974619;28;20224;-82
2022/09/06 06:11:01;;;;;;;5.32;3.50;;;;;;;20.17;71.07;95945.69;4974093;28;20635;-81
2022/09/06 06:13:33;;;;;;;6.53;3.40;;;;;;;20.29;71.04;95946.47;4974510;28;20211;-82
2022/09/06 06:16:00;;;;;;;7.90;3.67;;;;;;;20.38;70.87;95942.53;4973818;28;20250;-81
2022/09/06 06:18:29;;;;;;;3.85;3.30;;;;;;;20.59;70.11;95944.50;4974057;28;20224;-80
2022/09/06 06:21:10;;;;;;;3.63;2.97;;;;;;;20.79;69.47;95951.97;4973459;28;20204;-83
2022/09/06 06:23:36;;;;;;;3.67;3.38;;;;;;;20.93;69.07;95947.31;4974619;28;20227;-82
2022/09/06 06:26:03;;;;;;;4.55;3.17;;;;;;;21.08;68.58;95958.06;4974748;28;20234;-80
2022/09/06 06:28:31;;;;;;;5.07;3.95;;;;;;;21.15;68.06;95958.75;4974423;28;20612;-81
2022/09/06 06:30:57;;;;;;;3.80;3.50;;;;;;;21.22;67.82;95966.47;4973443;28;20203;-80
2022/09/06 06:33:24;;;;;;;5.00;3.50;;;;;;;21.35;67.53;95961.75;4974703;28;20227;-80
2022/09/06 06:35:58;;;;;;;4.85;4.30;;;;;;;21.38;67.29;95947.38;4973416;28;20239;-81
2022/09/06 06:38:25;;;;;;;5.05;3.38;;;;;;;21.29;66.53;95959.28;4974157;28;20230;-82
2022/09/06 06:40:51;;;;;;;6.20;3.30;;;;;;;21.26;67.00;95959.75;4967824;28;20254;-80
2022/09/06 06:43:17;;;;;;;4.72;3.45;;;;;;;21.28;66.96;95960.31;4973101;28;20588;-79
2022/09/06 06:45:49;;;;;;;4.88;3.22;;;;;;;21.22;67.08;95961.22;4973610;28;20265;-80
2022/09/06 06:48:16;;;;;;;3.80;3.45;;;;;;;21.19;67.38;95962.47;4973841;28;20228;-79
2022/09/06 06:50:42;;;;;;;3.70;3.00;;;;;;;21.27;67.54;95972.59;4972699;28;20255;-81
2022/09/06 06:53:09;;;;;;;3.40;3.10;;;;;;;21.38;67.43;95978.81;4973327;28;20757;-81
2022/09/06 06:55:35;;;;;;;3.40;3.10;;;;;;;21.52;67.09;95974.91;4973097;28;20240;-82
2022/09/06 06:58:02;;;;;;;2.88;2.67;;;;;;;21.58;65.65;95979.19;4972780;28;20840;-80
2022/09/06 07:00:29;;;;;;;3.30;2.55;;;;;;;21.59;65.66;95975.53;4973224;28;20207;-81
2022/09/06 07:02:58;;;;;;;4.38;3.35;;;;;;;21.67;65.17;95975.16;4972470;28;20208;-81
2022/09/06 07:05:25;;;;;;;4.57;3.22;;;;;;;21.71;65.98;95976.28;4973040;28;20255;-80
2022/09/06 07:07:51;;;;;;;3.60;2.80;;;;;;;21.63;65.67;95974.03;4973037;28;20274;-82
2022/09/06 07:10:18;;;;;;;3.53;2.60;;;;;;;21.54;65.57;95972.84;4972517;28;20262;-80
2022/09/06 07:12:44;;;;;;;5.60;2.72;;;;;;;21.53;66.27;95978.31;4972507;28;20299;-80
2022/09/06 07:15:11;;;;;;;3.08;2.58;;;;;;;21.66;66.09;95975.38;4972754;28;20240;-81
2022/09/06 07:17:37;;;;;;;4.43;2.10;;;;;;;21.58;65.68;95976.56;4972998;28;20286;-80
2022/09/06 07:20:06;;;;;;;3.42;2.17;;;;;;;21.63;65.91;95987.13;4973012;28;20355;-80
2022/09/06 07:22:32;;;;;;;3.10;2.40;;;;;;;21.58;65.84;95992.28;4972785;28;20207;-80
2022/09/06 07:24:59;;;;;;;2.95;2.20;;;;;;;21.53;65.55;95989.59;4972021;28;20235;-81
2022/09/06 07:27:25;;;;;;;2.45;2.15;;;;;;;21.40;66.06;95991.69;4972365;28;20208;-81
2022/09/06 07:29:51;;;;;;;3.40;2.08;;;;;;;21.37;66.78;95990.31;4972747;28;20380;-81
2022/09/06 07:32:18;;;;;;;3.38;2.38;;;;;;;21.31;67.44;95986.84;4972528;28;20208;-81
2022/09/06 07:34:44;;;;;;;4.20;2.30;;;;;;;21.33;67.39;95994.47;4972205;28;20200;-83
2022/09/06 07:37:12;;;;;;;2.40;2.10;;;;;;;21.16;68.11;95994.38;4972879;28;20208;-83
2022/09/06 07:39:40;;;;;;;3.72;1.95;;;;;;;21.22;68.56;95987.41;4972372;28;20207;-83
2022/09/06 07:42:06;;;;;;;3.30;2.10;;;;;;;21.28;68.52;95983.88;4972620;28;20236;-83
2022/09/06 07:44:33;;;;;;;3.45;2.33;;;;;;;21.29;67.51;95977.59;4972881;28;20668;-83
2022/09/06 07:47:01;;;;;;;3.75;2.00;;;;;;;21.29;67.64;95975.00;4972529;28;20981;-81
2022/09/06 07:49:28;;;;;;;5.25;2.45;;;;;;;21.41;67.92;95980.16;4972821;28;20220;-82
2022/09/06 07:51:54;;;;;;;3.72;2.58;;;;;;;21.44;67.81;95977.88;4972099;28;20205;-82
2022/09/06 07:54:23;;;;;;;6.50;2.50;;;;;;;21.57;67.29;95976.78;4972840;28;20262;-83
2022/09/06 07:56:49;;;;;;;2.20;2.00;;;;;;;21.49;68.17;95974.56;4972342;28;20712;-83
2022/09/06 07:59:16;;;;;;;2.53;2.08;;;;;;;21.55;67.97;95978.88;4972421;28;20228;-83
2022/09/06 08:01:42;;;;;;;2.67;2.10;;;;;;;21.61;68.16;95970.06;4972762;28;20279;-79
2022/09/06 08:04:11;;;;;;;3.83;1.90;;;;;;;21.61;68.30;95967.44;4972382;28;20262;-81
2022/09/06 08:06:39;;;;;;;4.07;2.10;;;;;;;21.92;67.28;95956.44;4972419;28;20227;-82
2022/09/06 08:09:07;;;;;;;3.13;2.08;;;;;;;22.42;65.57;95945.13;4972417;28;20231;-82
2022/09/06 08:11:36;;;;;;;4.25;1.88;;;;;;;22.73;64.49;95930.53;4971601;28;20612;-82
2022/09/06 08:14:05;;;;;;;2.58;1.90;;;;;;;22.49;64.72;95937.09;4972305;28;20204;-81
2022/09/06 08:16:33;;;;;;;2.83;1.73;;;;;;;22.35;65.40;95929.53;4970843;28;20231;-83
2022/09/06 08:19:01;;;;;;;4.50;2.20;;;;;;;22.32;65.63;95924.00;4963938;28;20415;-82
2022/09/06 08:21:30;;;;;;;3.47;1.92;;;;;;;22.40;65.37;95916.50;4968721;28;20687;-83
2022/09/06 08:23:59;;;;;;;4.72;1.92;;;;;;;22.43;65.15;95915.22;4972567;28;20204;-82
2022/09/06 08:26:26;;;;;;;3.25;1.90;;;;;;;22.45;64.95;95917.59;4971872;28;20231;-82
2022/09/06 08:28:56;;;;;;;4.82;1.90;;;;;;;22.49;64.49;95916.09;4971886;28;20235;-83
2022/09/06 08:31:27;;;;;;;2.30;1.70;;;;;;;22.63;63.89;95925.19;4971676;28;20203;-82
2022/09/06 08:33:54;;;;;;;2.00;1.77;;;;;;;22.64;63.72;95929.41;4972363;28;20211;-81
2022/09/06 08:36:26;;;;;;;6.60;1.80;;;;;;;22.64;63.02;95927.56;4971605;28;20232;-83
2022/09/06 08:38:52;;;;;;;1.63;1.42;;;;;;;22.70;62.90;95925.81;4971898;28;20220;-82
2022/09/06 08:41:24;;;;;;;2.88;1.75;;;;;;;22.67;62.54;95921.84;4975872;28;20207;-83
2022/09/06 08:43:53;;;;;;;2.97;1.70;;;;;;;22.74;62.64;95921.63;4976769;28;20232;-83
2022/09/06 08:46:23;;;;;;;3.08;1.50;;;;;;;22.75;61.97;95917.97;4975419;28;20248;-82
2022/09/06 08:48:50;;;;;;;1.85;1.63;;;;;;;22.73;61.35;95917.41;4975968;28;20227;-81
2022/09/06 08:51:37;;;;;;;1.80;1.52;;;;;;;22.84;61.73;95926.25;4975984;28;20214;-82
2022/09/06 08:54:11;;;;;;;1.60;1.50;;;;;;;22.82;61.84;95923.06;4976291;28;20593;-81
2022/09/06 08:56:51;;;;;;;2.47;1.60;;;;;;;22.65;61.26;95928.38;4975017;28;20228;-82
2022/09/06 08:59:19;;;;;;;2.80;1.50;;;;;;;22.58;61.81;95925.09;4976633;28;20220;-81
2022/09/06 09:01:58;;;;;;;2.63;1.60;;;;;;;22.51;61.47;95927.13;4975356;28;20259;-81
2022/09/06 09:04:28;;;;;;;1.85;1.30;;;;;;;22.48;62.25;95911.88;4976365;28;20579;-82
2022/09/06 09:07:04;;;;;;;3.40;1.30;;;;;;;22.42;62.06;95907.59;4975294;28;20274;-82
2022/09/06 09:09:34;;;;;;;1.60;1.25;;;;;;;22.54;61.74;95905.63;4976047;28;20278;-82
2022/09/06 09:12:01;;;;;;;2.25;1.70;;;;;;;22.58;62.18;95902.28;4975405;28;20204;-80
2022/09/06 09:14:34;;;;;;;3.35;1.50;;;;;;;22.61;62.73;95893.13;4975491;28;20204;-83
2022/09/06 09:17:05;;;;;;;2.00;1.40;;;;;;;22.60;62.11;95889.72;4975259;28;20235;-82
2022/09/06 09:19:35;;;;;;;2.47;1.40;;;;;;;22.67;62.43;95885.09;4975548;28;20219;-83
2022/09/06 09:22:02;;;;;;;2.53;1.60;;;;;;;22.80;62.79;95877.88;4975213;28;20691;-83
2022/09/06 09:24:30;;;;;;;2.10;1.40;;;;;;;22.94;62.18;95882.50;4975591;28;20212;-82
2022/09/06 09:27:03;;;;;;;1.75;1.58;;;;;;;23.41;60.42;95889.81;4975225;28;20228;-81
2022/09/06 09:29:30;;;;;;;4.35;1.52;;;;;;;24.18;58.42;95870.13;4975530;28;20240;-83
2022/09/06 09:31:57;;;;;;;2.83;1.63;;;;;;;24.65;56.13;95870.09;4975266;28;20215;-82
2022/09/06 09:34:32;;;;;;;4.63;1.48;;;;;;;25.11;55.62;95871.84;4976126;28;20231;-83
2022/09/06 09:37:20;;;;;;;4.95;1.60;;;;;;;25.30;53.99;95860.81;4974899;28;20243;-82
2022/09/06 09:39:48;;;;;;;1.25;1.15;;;;;;;25.41;52.62;95852.63;4975350;28;20196;-83
2022/09/06 09:42:24;;;;;;;1.60;1.50;;;;;;;25.47;51.02;95859.50;4974916;28;20208;-82
2022/09/06 09:44:51;;;;;;;1.40;1.30;;;;;;;25.48;50.16;95847.91;4974833;28;20642;-83
2022/09/06 09:47:25;;;;;;;3.55;1.40;;;;;;;25.64;49.84;95850.56;4974425;28;20196;-81
2022/09/06 09:49:53;;;;;;;3.78;1.83;;;;;;;25.94;50.17;95852.38;4975087;28;20200;-81
2022/09/06 09:52:24;;;;;;;2.58;1.48;;;;;;;26.19;49.87;95847.03;4973644;28;20259;-82
2022/09/06 09:54:54;;;;;;;1.50;1.02;;;;;;;26.43;49.57;95852.53;4974498;28;20235;-82
2022/09/06 09:57:22;;;;;;;2.13;1.25;;;;;;;26.65;48.54;95854.84;4974796;28;20273;-81
2022/09/06 09:59:51;;;;;;;2.25;1.25;;;;;;;26.79;48.04;95851.31;4974763;28;20215;-82
2022/09/06 10:02:23;;;;;;;2.60;1.20;;;;;;;26.95;47.55;95838.03;4974580;28;20200;-82
2022/09/06 10:04:58;;;;;;;1.95;1.33;;;;;;;27.11;47.77;95837.72;4974638;28;20232;-83
2022/09/06 10:07:25;;;;;;;1.70;1.60;;;;;;;27.25;47.65;95832.59;4974077;28;20200;-80
2022/09/06 10:09:58;;;;;;;1.55;1.45;;;;;;;27.33;47.87;95837.25;4974055;28;20212;-83
2022/09/06 10:12:29;;;;;;;2.15;1.40;;;;;;;27.37;46.83;95826.94;4974490;28;20204;-82
2022/09/06 10:14:56;;;;;;;1.38;1.27;;;;;;;27.34;46.64;95832.75;4974038;28;20251;-83
2022/09/06 10:17:30;;;;;;;1.92;1.45;;;;;;;27.36;46.01;95825.34;4974224;28;20224;-82
2022/09/06 10:20:01;;;;;;;2.17;1.40;;;;;;;27.36;45.41;95820.06;4973369;28;20236;-81
2022/09/06 10:22:29;;;;;;;2.75;1.50;;;;;;;27.47;45.59;95817.06;4973468;28;20207;-81
2022/09/06 10:25:14;;;;;;;2.33;1.48;;;;;;;27.27;45.76;95819.88;4973617;28;20228;-80
2022/09/06 10:27:59;;;;;;;3.35;1.35;;;;;;;27.00;45.78;95817.66;4973812;28;20270;-82
2022/09/06 10:30:30;;;;;;;1.92;1.50;;;;;;;27.07;46.63;95828.75;4973231;28;20208;-83
2022/09/06 10:33:05;;;;;;;1.50;1.40;;;;;;;27.20;45.14;95822.03;4974941;28;20212;-83
2022/09/06 10:35:37;;;;;;;2.55;1.30;;;;;;;27.13;45.77;95827.63;4973547;28;20346;-81
2022/09/06 10:38:16;;;;;;;4.25;1.60;;;;;;;27.32;45.94;95821.69;4973691;28;20220;-80
2022/09/06 10:40:53;;;;;;;2.83;1.42;;;;;;;27.11;45.15;95821.84;4972635;28;20192;-82
2022/09/06 10:43:20;;;;;;;2.75;1.58;;;;;;;26.99;46.17;95821.38;4973475;28;20207;-80
2022/09/06 10:45:59;;;;;;;2.13;1.33;;;;;;;26.99;46.15;95818.72;4973219;28;20287;-81
2022/09/06 10:48:30;;;;;;;4.30;1.60;;;;;;;27.16;46.13;95816.50;4973900;28;20232;-82
2022/09/06 10:51:01;;;;;;;2.67;1.58;;;;;;;27.23;46.32;95816.19;4972972;28;20291;-81
2022/09/06 10:53:38;;;;;;;3.10;1.60;;;;;;;27.21;46.23;95810.38;4973429;28;20224;-81
2022/09/06 10:56:08;;;;;;;2.50;1.42;;;;;;;27.23;47.00;95816.19;4973305;28;20235;-80
2022/09/06 10:58:43;;;;;;;2.70;1.42;;;;;;;27.27;46.79;95817.22;4973643;28;20227;-80
2022/09/06 11:01:20;;;;;;;2.22;1.60;;;;;;;27.28;46.12;95810.09;4973401;28;20212;-83
2022/09/06 11:03:50;;;;;;;1.52;1.42;;;;;;;27.39;46.60;95803.63;4973684;28;20208;-83
2022/09/06 11:06:22;;;;;;;4.68;1.80;;;;;;;27.52;46.59;95795.84;4973205;28;20592;-80
2022/09/06 11:08:54;;;;;;;3.17;1.50;;;;;;;27.57;45.52;95802.16;4973498;28;20228;-81
2022/09/06 11:11:26;;;;;;;3.90;1.55;;;;;;;27.63;46.39;95795.78;4972942;28;20208;-83
2022/09/06 11:13:52;;;;;;;2.78;1.58;;;;;;;27.65;45.56;95801.59;4973814;28;20242;-82
2022/09/06 11:16:24;;;;;;;2.45;1.67;;;;;;;27.55;45.55;95806.94;4972767;28;20324;-80
2022/09/06 11:18:57;;;;;;;2.00;1.35;;;;;;;27.60;46.55;95791.84;4973365;28;20279;-82
2022/09/06 11:21:46;;;;;;;2.13;1.38;;;;;;;27.71;48.35;95792.56;4972542;28;20211;-82
2022/09/06 11:24:14;;;;;;;2.72;2.00;;;;;;;27.82;47.01;95789.50;4973464;28;20261;-82
2022/09/06 11:26:44;;;;;;;2.38;1.65;;;;;;;27.93;47.16;95779.59;4972425;28;20245;-80
2022/09/06 11:29:18;;;;;;;3.60;1.60;;;;;;;27.98;46.50;95782.19;4972827;28;20611;-83
2022/09/06 11:31:55;;;;;;;5.13;1.52;;;;;;;27.91;46.99;95778.31;4972186;28;20631;-83
2022/09/06 11:34:26;;;;;;;4.50;1.80;;;;;;;27.93;46.88;95782.25;4972706;28;20207;-82
2022/09/06 11:36:56;;;;;;;2.92;1.80;;;;;;;27.94;45.90;95781.19;4953202;28;20248;-82
2022/09/06 11:39:30;;;;;;;2.50;1.75;;;;;;;27.98;46.54;95778.75;4953423;28;20267;-82
2022/09/06 11:41:57;;;;;;;4.68;1.77;;;;;;;28.03;46.72;95768.13;4953037;28;20267;-82
2022/09/06 11:45:16;;;;;;;3.28;1.70;;;;;;;28.01;46.70;95773.69;4953825;28;20205;-82